createdAt,value
2022-10-05T00:02:19.505Z,2.13
2022-10-05T00:06:22.762Z,2.38
2022-10-05T00:10:26.167Z,2.40
2022-10-05T00:14:31.307Z,2.83
2022-10-05T00:18:36.391Z,2.30
2022-10-05T00:22:39.751Z,2.60
2022-10-05T00:26:43.955Z,2.58
2022-10-05T00:30:47.823Z,2.13
2022-10-05T00:34:52.888Z,2.90
2022-10-05T00:38:56.474Z,2.63
2022-10-05T00:43:11.548Z,2.22
2022-10-05T00:47:33.729Z,2.30
2022-10-05T00:51:40.570Z,4.03
2022-10-05T00:55:56.266Z,2.55
2022-10-05T01:00:09.903Z,2.97
2022-10-05T01:04:21.300Z,3.25
2022-10-05T01:13:04.688Z,3.17
2022-10-05T01:17:13.502Z,2.70
2022-10-05T01:21:21.410Z,1.67
2022-10-05T01:25:31.833Z,2.28
2022-10-05T01:29:45.638Z,2.00
2022-10-05T01:33:57.204Z,2.83
2022-10-05T01:38:13.264Z,2.40
2022-10-05T01:42:26.885Z,1.83
2022-10-05T01:46:37.727Z,1.48
2022-10-05T01:50:55.356Z,2.00
2022-10-05T01:55:11.333Z,1.48
2022-10-05T01:59:26.383Z,1.38
2022-10-05T02:03:38.453Z,1.58
2022-10-05T02:07:47.359Z,1.27
2022-10-05T02:11:58.050Z,1.70
2022-10-05T02:16:05.169Z,1.27
2022-10-05T02:20:16.650Z,1.50
2022-10-05T02:24:25.953Z,1.70
2022-10-05T02:28:34.873Z,1.55
2022-10-05T02:32:42.364Z,1.10
2022-10-05T02:36:49.305Z,1.25
2022-10-05T02:40:59.758Z,1.90
2022-10-05T02:45:12.822Z,2.00
2022-10-05T02:49:24.813Z,1.73
2022-10-05T02:53:43.193Z,1.63
2022-10-05T02:57:53.183Z,2.25
2022-10-05T03:02:01.835Z,2.72
2022-10-05T03:06:12.343Z,2.53
2022-10-05T03:10:27.891Z,2.53
2022-10-05T03:14:41.075Z,2.42
2022-10-05T03:18:59.429Z,2.00
2022-10-05T03:23:05.740Z,2.08
2022-10-05T03:27:19.719Z,2.97
2022-10-05T03:31:32.323Z,2.72
2022-10-05T03:35:47.401Z,2.05
2022-10-05T03:39:56.160Z,2.53
2022-10-05T03:44:35.628Z,2.30
2022-10-05T03:48:45.503Z,1.95
2022-10-05T03:52:52.757Z,2.35
2022-10-05T03:56:58.749Z,1.98
2022-10-05T04:01:10.168Z,1.85
2022-10-05T04:05:18.310Z,1.15
2022-10-05T04:09:27.171Z,1.80
2022-10-05T04:13:36.834Z,1.25
2022-10-05T04:17:44.977Z,1.40
2022-10-05T04:21:52.401Z,2.00
2022-10-05T04:26:02.567Z,1.83
2022-10-05T04:30:09.272Z,1.67
2022-10-05T04:34:27.067Z,1.65
2022-10-05T04:38:45.292Z,1.50
2022-10-05T04:43:01.331Z,1.35
2022-10-05T04:47:27.055Z,1.83
2022-10-05T04:51:39.448Z,2.17
2022-10-05T04:55:52.541Z,1.98
2022-10-05T05:00:11.518Z,1.80
2022-10-05T05:04:37.907Z,2.75
2022-10-05T05:09:03.691Z,2.42
2022-10-05T05:13:20.054Z,1.95
2022-10-05T05:17:34.950Z,0.80
2022-10-05T05:21:48.637Z,1.10
2022-10-05T05:26:03.996Z,1.10
2022-10-05T05:30:18.529Z,0.88
2022-10-05T05:34:39.861Z,0.95
2022-10-05T05:38:48.957Z,1.00
2022-10-05T05:43:00.108Z,1.00
2022-10-05T05:47:06.434Z,1.17
2022-10-05T05:51:14.585Z,0.90
2022-10-05T05:55:29.684Z,0.80
2022-10-05T05:59:50.719Z,1.33
2022-10-05T06:03:57.316Z,1.05
2022-10-05T06:08:05.294Z,1.42
2022-10-05T06:12:13.147Z,1.50
2022-10-05T06:16:22.895Z,1.50
2022-10-05T06:20:30.371Z,1.60
2022-10-05T06:24:40.710Z,1.75
2022-10-05T06:28:43.738Z,1.65
2022-10-05T06:33:06.761Z,1.92
2022-10-05T06:41:26.678Z,1.25
2022-10-05T06:49:47.315Z,1.75
2022-10-05T06:54:01.549Z,2.47
2022-10-05T06:58:19.109Z,2.08
2022-10-05T07:02:31.784Z,1.45
2022-10-05T07:06:42.473Z,0.95
2022-10-05T07:11:02.129Z,1.88
2022-10-05T07:15:27.355Z,1.27
2022-10-05T07:19:39.373Z,1.75
2022-10-05T07:24:06.375Z,2.03
2022-10-05T07:28:14.796Z,1.25
2022-10-05T07:32:32.335Z,1.40
2022-10-05T07:36:57.760Z,1.27
2022-10-05T07:41:08.012Z,1.38
2022-10-05T07:45:22.999Z,1.73
2022-10-05T07:49:38.010Z,1.52
2022-10-05T07:53:47.727Z,1.42
2022-10-05T07:58:02.435Z,1.95
2022-10-05T08:02:15.610Z,1.70
2022-10-05T08:06:33.340Z,1.70
2022-10-05T08:10:44.083Z,1.15
2022-10-05T08:14:54.712Z,1.15
2022-10-05T08:19:04.543Z,1.63
2022-10-05T08:23:19.149Z,1.42
2022-10-05T08:27:28.396Z,1.30
2022-10-05T08:31:36.640Z,1.33
2022-10-05T08:35:44.417Z,1.65
2022-10-05T08:39:54.487Z,1.92
2022-10-05T08:44:34.483Z,1.90
2022-10-05T08:49:11.027Z,1.65
2022-10-05T08:53:30.245Z,2.45
2022-10-05T08:57:48.197Z,1.67
2022-10-05T09:02:14.722Z,1.30
2022-10-05T09:06:49.069Z,1.55
2022-10-05T09:11:02.584Z,1.73
2022-10-05T09:15:28.789Z,1.40
2022-10-05T09:20:07.800Z,1.10
2022-10-05T09:24:39.428Z,1.15
2022-10-05T09:29:00.045Z,1.30
2022-10-05T09:33:29.081Z,1.35
2022-10-05T09:38:18.414Z,1.17
2022-10-05T09:42:54.043Z,1.60
2022-10-05T09:47:19.015Z,1.33
2022-10-05T09:51:52.223Z,1.40
2022-10-05T09:56:16.901Z,1.35
2022-10-05T10:05:15.961Z,1.10
2022-10-05T10:09:35.318Z,1.77
2022-10-05T10:14:07.143Z,1.33
2022-10-05T10:18:34.778Z,1.65
2022-10-05T10:23:08.095Z,1.20
2022-10-05T10:27:22.231Z,1.48
2022-10-05T10:31:43.329Z,1.10
2022-10-05T10:35:56.485Z,1.40
2022-10-05T10:40:24.053Z,1.50
2022-10-05T10:45:02.591Z,1.35
2022-10-05T10:49:25.163Z,1.60
2022-10-05T10:53:53.300Z,1.58
2022-10-05T10:58:20.018Z,1.10
2022-10-05T11:02:59.733Z,0.90
2022-10-05T11:07:23.275Z,1.13
2022-10-05T11:12:03.960Z,1.45
2022-10-05T11:16:44.708Z,1.02
2022-10-05T11:21:38.184Z,1.40
2022-10-05T11:26:20.662Z,1.20
2022-10-05T11:30:57.533Z,1.20
2022-10-05T11:35:27.730Z,1.00
2022-10-05T11:39:38.970Z,1.20
2022-10-05T11:44:07.238Z,1.10
2022-10-05T11:48:47.567Z,1.63
2022-10-05T11:52:55.959Z,1.35
2022-10-05T11:57:04.220Z,1.23
2022-10-05T12:01:18.504Z,1.42
2022-10-05T12:05:26.747Z,1.58
2022-10-05T12:10:06.670Z,1.23
2022-10-05T12:14:19.037Z,1.10
2022-10-05T12:18:28.197Z,1.40
2022-10-05T12:22:39.046Z,0.88
2022-10-05T12:26:48.130Z,1.08
2022-10-05T12:31:09.439Z,1.10
2022-10-05T12:35:36.576Z,0.95
2022-10-05T12:39:52.747Z,1.50
2022-10-05T12:48:25.666Z,1.05
2022-10-05T12:52:44.085Z,1.15
2022-10-05T12:56:55.627Z,1.60
2022-10-05T13:01:10.934Z,1.00
2022-10-05T13:05:27.858Z,1.10
2022-10-05T13:18:22.525Z,1.42
2022-10-05T13:22:35.930Z,1.27
